Thursday, July 31, 2014
03:27 UTC
  |  Log In   |  Register Free
Airport Search:

Independence Municipal Airport
(KIDP)

Independence Municipal Airport Diagram
No Airport Diagram Available

FAA data valid effective July 24, 2014 until September 18, 2014 (unless otherwise noted).

 
 
 
 
 
 
 
 
 
 
 
 
 
 

Current Aviation Weather for Independence Municipal Airport (KIDP)

The most recent METAR observation for KIDP was updated at: 1835 UTC
METAR Summary (Translated METAR)
KIDP
281835Z AUTO 35011G14KT 10SM CLR 27/14 A3021 RMK AO2
KCFV
(10.6 nm SE from KIDP)
281752Z AUTO 34007G18KT 310V020 10SM CLR 28/15 A3022 RMK AO2 SLP227 T02780150 10283 20172 58003
TAF
No TAF information found within 50 nm of KIDP
  Airport Weather Conditions for KIDP

 Current Weather at IDP
66° F
Overcast
Northeast winds at 8.1 mph
IDP NOAA Radar

Pressure: 30.09 in
Humidity: 94%
Wind: Northeast at 8.1 MPH (7 KT)
Dew Point: 64.4°F
Visibility: 7.00 mi


Airport Weather Forecast for KIDP

Translated METAR and TAF for KIDP
Translated METAR for KIDP (0321 UTC 31 July 2014)
found at http://aviationweather.gov/adds/metars/
 
METAR text: KIDP 310315Z AUTO 05005KT 10SM SCT008 BKN026 OVC090 19/18 A3010 RMK AO2 LTG DSNT W
Conditions at: KIDP (INDEPENDENCE , KS, US) observed 0315 UTC 31 July 2014
Temperature: 19.0°C (66°F)
Dewpoint: 18.0°C (64°F) [RH = 94%]
Pressure (altimeter): 30.10 inches Hg (1019.4 mb)
Winds: from the NE (50 degrees) at 6 MPH (5 knots; 2.6 m/s)
Visibility: 10 or more miles (16+ km)
Ceiling: 2600 feet AGL
Clouds: scattered clouds at 800 feet AGL
broken clouds at 2600 feet AGL
overcast cloud deck at 9000 feet AGL
Weather: automated observation with no human augmentation;
there may or may not be significant weather present at this time
Translated TAF for KIDP

There is no translated TAF available for this airport

Find All Airport Services Find A Hotel Find A Rental Car Find A Golf Course Find A Restaurant $100 Hamburger



FBO's on the Field
FBO Company Facility Photos Services Transportation Aviation Fuel Prices: Prices include tax
Catering Weather Repair Courtesy Rental Type 100LL JetA JetA+ MOGAS 8087
 
City of Independence

This FBO has not yet been rated
FS:Phillips66
Last Updated: Jul-21
Login to update fuel prices
SS:
Contact City of IndependenceMore FBO Information
 
Add another FBO Facility Photos Catering Weather Repair Courtesy Rental Type 100LL JetA JetA+ MOGAS 8087
Services Transportation Aviation Fuel Prices: Prices include tax


GlobalAir.com Airport Resource Center model-print
model-print
model-print
model-print